Rubicon, Wisconsin
Current Conditions -  °F | °C
As of 5:55 PM on Wednesday 22 Oct 2014 (Local Time) from KUNU Reporting Station
Clear Clear  
Wind Chill: 50°   Ceiling: Unl
Heat Index: 50°   Visibility: 10mi
Dew Point: 38°   Wind: 6mph
Humidity: 64%   Direction: 120°ESE
Pressure: 30.24"   Gusts: NA
Location:  43.34°N, 88.46°W
Report Text: KUNU 222255Z AUTO 12005KT 10SM CLR 10/04 A3024 RMK AO2 T01010035
Loading
Personal Weather Stations






























Interactive Weather Map
Tropical Storm Tracking
New forecast layout! Learn more

10-Day Weather Forecast

Advertisements
Track Severe Weather on mobile